メインページ
METAR-TAF:

METAR-TAF

空港 :

アブダビ国際空港

アブダビ, アラブ首長国連邦

緯度: 24-26N, 経度: 054-39E, 海抜: 16m

現時点の気象観測

当レポートは39分前の17:00(UTC)に作成
西/北西の風 7kt
気温 34°C
湿度 60%
気圧 1006 hPa
視程: 8000m

METAR: OMAA 251700Z 29007KT 8000 NSC 34/25 Q1006 NOSIG

時間: 21:39 (17:39 UTC)

予報

当レポートは6時間39分前の11:00(UTC)に作成
予報は25日の 12時(UTC)から 26日の 18時(UTC)まで有効
西/北西の風 15kt
視程: 8000m
25日の 18時(UTC)から 25日の 20時(UTC)まで徐々に
南/南西の風 5kt
確率 30%
26日の 00時(UTC)から 26日の 04時(UTC)まで
視程: 4000m
煙霧
26日の 06時(UTC)から 26日の 08時(UTC)まで徐々に
西/北西の風 14kt
26日の 16時(UTC)から 26日の 18時(UTC)まで徐々に
北東の風 7kt

TAF: OMAA 251100Z 2512/2618 29015KT 8000 NSC BECMG 2518/2520 20005KT PROB30 2600/2604 4000 HZ BECMG 2606/2608 30014KT BECMG 2616/2618 04007KT

4,000以上の空港の気象観測と天気予報(METAR報とTAF報)

利用可能な観測所は地図上に黄色い丸と赤い丸で示す。

丸の上にカーソルを重ねると観測所名を参照できる。

次にクリックすると気象観測と天気予報を参照できる。

マップの切り替え:黒色「×」印の緑ボタンをクリックして拡大、「-」印の緑ボタンをクリックして縮小、緑色の三角印をクリックして隣りの地図に切り替え


METAR-TAF: